createdAt,value
2022-09-22T00:01:39.350Z,12.17
2022-09-22T00:04:13.112Z,12.18
2022-09-22T00:06:46.993Z,12.22
2022-09-22T00:09:19.470Z,12.18
2022-09-22T00:11:54.018Z,12.08
2022-09-22T00:14:27.587Z,12.02
2022-09-22T00:17:01.128Z,11.99
2022-09-22T00:19:33.106Z,12.06
2022-09-22T00:22:03.475Z,12.07
2022-09-22T00:24:33.664Z,12.21
2022-09-22T00:27:03.943Z,12.19
2022-09-22T00:29:35.415Z,12.10
2022-09-22T00:32:07.521Z,12.01
2022-09-22T00:34:37.410Z,12.03
2022-09-22T00:37:07.148Z,12.11
2022-09-22T00:39:36.995Z,12.13
2022-09-22T00:42:07.067Z,12.09
2022-09-22T00:44:41.070Z,11.87
2022-09-22T00:47:17.182Z,12.05
2022-09-22T00:49:52.494Z,11.98
2022-09-22T00:52:26.635Z,12.09
2022-09-22T00:54:58.071Z,11.95
2022-09-22T00:57:31.350Z,11.92
2022-09-22T01:00:05.804Z,11.95
2022-09-22T01:02:36.238Z,11.88
2022-09-22T01:05:07.843Z,11.81
2022-09-22T01:07:38.475Z,11.83
2022-09-22T01:10:09.164Z,11.84
2022-09-22T01:12:43.068Z,11.82
2022-09-22T01:15:25.920Z,11.73
2022-09-22T01:18:12.838Z,11.61
2022-09-22T01:21:20.433Z,11.67
2022-09-22T01:24:31.673Z,11.60
2022-09-22T01:27:21.175Z,11.54
2022-09-22T01:30:24.218Z,11.58
2022-09-22T01:33:06.350Z,11.46
2022-09-22T01:35:45.838Z,11.56
2022-09-22T01:38:25.350Z,11.49
2022-09-22T01:41:02.259Z,11.54
2022-09-22T01:43:41.650Z,11.60
2022-09-22T01:46:18.809Z,11.52
2022-09-22T01:48:52.592Z,11.45
2022-09-22T01:51:28.337Z,11.37
2022-09-22T01:54:04.949Z,11.51
2022-09-22T01:56:37.459Z,11.40
2022-09-22T01:59:09.908Z,11.41
2022-09-22T02:01:47.195Z,11.38
2022-09-22T02:04:24.996Z,11.41
2022-09-22T02:07:01.107Z,11.42
2022-09-22T02:09:34.987Z,11.32
2022-09-22T02:12:05.768Z,11.33
2022-09-22T02:14:36.098Z,11.31
2022-09-22T02:17:07.355Z,11.34
2022-09-22T02:19:39.949Z,11.30
2022-09-22T02:22:12.633Z,11.35
2022-09-22T02:24:44.321Z,11.35
2022-09-22T02:27:20.503Z,11.25
2022-09-22T02:29:54.026Z,11.33
2022-09-22T02:32:26.891Z,11.24
2022-09-22T02:34:57.973Z,11.38
2022-09-22T02:37:36.775Z,11.30
2022-09-22T02:40:18.170Z,11.31
2022-09-22T02:42:53.351Z,11.33
2022-09-22T02:45:28.035Z,11.17
2022-09-22T02:48:03.050Z,11.33
2022-09-22T02:50:34.096Z,11.30
2022-09-22T02:53:06.089Z,11.36
2022-09-22T02:55:36.060Z,11.32
2022-09-22T02:58:06.215Z,11.26
2022-09-22T03:00:37.221Z,11.31
2022-09-22T03:03:08.382Z,11.30
2022-09-22T03:05:38.386Z,11.20
2022-09-22T03:08:08.285Z,11.29
2022-09-22T03:10:37.982Z,11.22
2022-09-22T03:13:16.519Z,11.29
2022-09-22T03:15:47.844Z,11.29
2022-09-22T03:18:19.075Z,11.34
2022-09-22T03:20:49.173Z,11.42
2022-09-22T03:23:19.386Z,11.35
2022-09-22T03:25:49.162Z,11.38
2022-09-22T03:28:19.392Z,11.29
2022-09-22T03:30:49.383Z,11.31
2022-09-22T03:33:20.605Z,11.39
2022-09-22T03:35:50.532Z,11.49
2022-09-22T03:38:20.460Z,11.46
2022-09-22T03:40:53.726Z,11.42
2022-09-22T03:43:23.563Z,11.50
2022-09-22T03:45:58.174Z,11.50
2022-09-22T03:48:31.126Z,11.51
2022-09-22T03:51:01.576Z,11.43
2022-09-22T03:53:31.661Z,11.47
2022-09-22T03:56:09.390Z,11.37
2022-09-22T03:58:39.684Z,11.38
2022-09-22T04:01:11.394Z,11.30
2022-09-22T04:03:42.844Z,11.30
2022-09-22T04:06:12.634Z,11.40
2022-09-22T04:08:42.599Z,11.19
2022-09-22T04:11:12.762Z,11.36
2022-09-22T04:13:46.230Z,11.38
2022-09-22T04:16:17.763Z,11.37
2022-09-22T04:18:49.159Z,11.41
2022-09-22T04:21:23.665Z,11.36
2022-09-22T04:23:53.438Z,11.32
2022-09-22T04:26:23.159Z,11.32
2022-09-22T04:28:53.074Z,11.33
2022-09-22T04:31:23.142Z,11.23
2022-09-22T04:33:54.639Z,11.34
2022-09-22T04:36:24.388Z,11.29
2022-09-22T04:38:55.428Z,11.33
2022-09-22T04:41:28.502Z,11.32
2022-09-22T04:43:58.365Z,11.26
2022-09-22T04:46:28.410Z,11.29
2022-09-22T04:48:59.836Z,11.32
2022-09-22T04:51:29.549Z,11.37
2022-09-22T04:53:59.295Z,11.27
2022-09-22T04:56:29.019Z,11.26
2022-09-22T04:58:58.721Z,11.23
2022-09-22T05:01:28.553Z,11.30
2022-09-22T05:03:59.786Z,11.43
2022-09-22T05:06:29.576Z,11.58
2022-09-22T05:08:59.569Z,11.62
2022-09-22T05:11:30.264Z,11.69
2022-09-22T05:14:00.166Z,11.87
2022-09-22T05:16:32.413Z,11.85
2022-09-22T05:19:04.068Z,12.02
2022-09-22T05:21:34.316Z,12.12
2022-09-22T05:24:05.464Z,12.12
2022-09-22T05:26:35.574Z,12.08
2022-09-22T05:29:06.397Z,12.08
2022-09-22T05:31:36.174Z,12.08
2022-09-22T05:34:07.715Z,12.00
2022-09-22T05:36:37.513Z,12.33
2022-09-22T05:39:07.411Z,12.31
2022-09-22T05:41:37.295Z,12.44
2022-09-22T05:44:07.091Z,12.58
2022-09-22T05:46:36.865Z,12.55
2022-09-22T05:49:08.023Z,12.59
2022-09-22T05:51:37.832Z,12.48
2022-09-22T05:54:09.836Z,12.42
2022-09-22T05:56:39.577Z,12.56
2022-09-22T05:59:09.387Z,12.65
2022-09-22T06:01:39.531Z,12.82
2022-09-22T06:04:10.959Z,12.80
2022-09-22T06:06:41.899Z,12.89
2022-09-22T06:09:11.831Z,12.92
2022-09-22T06:11:41.594Z,12.76
2022-09-22T06:14:11.473Z,12.78
2022-09-22T06:16:43.256Z,12.83
2022-09-22T06:19:14.669Z,12.79
2022-09-22T06:21:45.681Z,12.86
2022-09-22T06:24:15.944Z,13.01
2022-09-22T06:26:47.045Z,13.18
2022-09-22T06:29:17.691Z,13.19
2022-09-22T06:31:49.044Z,13.17
2022-09-22T06:34:20.365Z,13.29
2022-09-22T06:36:50.277Z,13.37
2022-09-22T06:39:21.310Z,13.33
2022-09-22T06:41:51.365Z,13.17
2022-09-22T06:44:21.347Z,13.28
2022-09-22T06:46:51.108Z,13.33
2022-09-22T06:49:22.243Z,13.35
2022-09-22T06:51:52.163Z,13.43
2022-09-22T06:54:24.702Z,13.45
2022-09-22T06:56:55.675Z,13.37
2022-09-22T06:59:25.871Z,13.64
2022-09-22T07:01:56.661Z,13.62
2022-09-22T07:04:28.084Z,13.79
2022-09-22T07:06:59.200Z,13.95
2022-09-22T07:09:29.052Z,13.91
2022-09-22T07:12:00.392Z,13.95
2022-09-22T07:14:31.288Z,14.02
2022-09-22T07:17:02.407Z,14.05
2022-09-22T07:19:35.207Z,14.09
2022-09-22T07:22:05.302Z,14.11
2022-09-22T07:24:36.693Z,14.19
2022-09-22T07:27:10.708Z,14.32
2022-09-22T07:29:42.795Z,14.47
2022-09-22T07:32:12.541Z,14.56
2022-09-22T07:34:47.369Z,14.61
2022-09-22T07:37:17.693Z,14.66
2022-09-22T07:39:48.586Z,14.56
2022-09-22T07:42:19.071Z,14.68
2022-09-22T07:45:06.312Z,14.82
2022-09-22T07:47:53.977Z,15.01
2022-09-22T07:50:25.471Z,15.00
2022-09-22T07:52:55.415Z,14.82
2022-09-22T07:55:25.886Z,14.92
2022-09-22T07:57:58.940Z,14.93
2022-09-22T08:00:33.146Z,15.07
2022-09-22T08:03:04.195Z,15.08
2022-09-22T08:05:35.337Z,15.28
2022-09-22T08:08:06.078Z,15.29
2022-09-22T08:10:35.890Z,15.46
2022-09-22T08:13:05.976Z,15.58
2022-09-22T08:15:42.217Z,15.58
2022-09-22T08:18:12.373Z,15.62
2022-09-22T08:20:45.282Z,15.62
2022-09-22T08:23:15.167Z,15.62
2022-09-22T08:25:45.132Z,15.63
2022-09-22T08:28:15.064Z,15.66
2022-09-22T08:30:47.258Z,15.84
2022-09-22T08:33:17.299Z,15.87
2022-09-22T08:35:57.207Z,15.76
2022-09-22T08:38:28.350Z,15.81
2022-09-22T08:41:17.550Z,15.96
2022-09-22T08:43:55.532Z,15.81
2022-09-22T08:46:29.730Z,15.44
2022-09-22T08:49:23.617Z,15.95
2022-09-22T08:51:58.009Z,16.11
2022-09-22T08:54:31.613Z,16.15
2022-09-22T08:57:29.895Z,16.22
2022-09-22T09:00:05.751Z,16.34
2022-09-22T09:02:42.015Z,16.24
2022-09-22T09:05:47.140Z,16.26
2022-09-22T09:08:50.630Z,16.34
2022-09-22T09:11:32.222Z,16.45
2022-09-22T09:14:18.511Z,16.36
2022-09-22T09:16:52.160Z,16.39
2022-09-22T09:19:33.393Z,16.31
2022-09-22T09:22:07.076Z,16.35
2022-09-22T09:27:42.419Z,16.45
2022-09-22T09:30:17.928Z,16.58
2022-09-22T09:32:51.577Z,16.70
2022-09-22T09:35:26.706Z,16.76
2022-09-22T09:37:59.247Z,16.93
2022-09-22T09:40:30.645Z,17.04
2022-09-22T09:43:03.649Z,17.11
2022-09-22T09:45:44.091Z,16.92
2022-09-22T09:48:22.869Z,17.00
2022-09-22T09:50:53.413Z,17.01
2022-09-22T09:53:33.536Z,16.81
2022-09-22T09:56:15.512Z,16.69
2022-09-22T09:59:14.414Z,16.58
2022-09-22T10:01:48.118Z,16.76
2022-09-22T10:04:29.860Z,17.00
2022-09-22T10:07:12.972Z,17.09
2022-09-22T10:09:43.700Z,17.12
2022-09-22T10:12:35.249Z,17.13
2022-09-22T10:15:25.728Z,16.97
2022-09-22T10:17:56.558Z,16.73
2022-09-22T10:20:31.600Z,16.72
2022-09-22T10:23:21.789Z,16.73
2022-09-22T10:25:52.319Z,16.95
2022-09-22T10:28:26.912Z,16.94
2022-09-22T10:31:03.591Z,17.13
2022-09-22T10:33:34.316Z,17.34
2022-09-22T10:36:11.857Z,17.43
2022-09-22T10:38:44.996Z,17.52
2022-09-22T10:41:18.105Z,17.62
2022-09-22T10:43:53.334Z,17.46
2022-09-22T10:47:06.291Z,17.52
2022-09-22T10:49:55.314Z,17.47
2022-09-22T10:52:32.291Z,17.52
2022-09-22T10:55:18.277Z,17.51
2022-09-22T10:58:07.086Z,17.77
2022-09-22T11:00:40.177Z,17.79
2022-09-22T11:03:32.872Z,17.86
2022-09-22T11:06:46.354Z,17.58
2022-09-22T11:09:50.825Z,17.55
2022-09-22T11:12:26.515Z,17.63
2022-09-22T11:15:13.577Z,17.51
2022-09-22T11:18:10.063Z,17.53
2022-09-22T11:20:42.427Z,17.40
2022-09-22T11:23:43.884Z,17.50
2022-09-22T11:26:37.024Z,17.83
2022-09-22T11:29:30.611Z,17.86
2022-09-22T11:32:09.368Z,17.67
2022-09-22T11:34:54.980Z,17.65
2022-09-22T11:37:40.189Z,17.62
2022-09-22T11:40:28.831Z,17.53
2022-09-22T11:43:20.781Z,17.65
2022-09-22T11:45:55.337Z,17.44
2022-09-22T11:48:46.293Z,17.46
2022-09-22T11:51:47.669Z,17.69
2022-09-22T11:54:34.788Z,17.27
2022-09-22T11:57:11.537Z,17.42
2022-09-22T11:59:45.892Z,17.35
2022-09-22T12:02:23.575Z,17.23
2022-09-22T12:04:59.047Z,17.09
2022-09-22T12:07:35.270Z,17.13
2022-09-22T12:10:11.012Z,17.05
2022-09-22T12:12:48.623Z,17.03
2022-09-22T12:15:25.061Z,17.08
2022-09-22T12:18:02.625Z,16.97
2022-09-22T12:20:45.853Z,16.93
2022-09-22T12:23:28.912Z,16.84
2022-09-22T12:26:04.185Z,16.88
2022-09-22T12:28:40.347Z,16.99
2022-09-22T12:31:14.220Z,17.07
2022-09-22T12:33:50.859Z,17.08
2022-09-22T12:36:29.977Z,17.04
2022-09-22T12:39:19.008Z,17.19
2022-09-22T12:41:52.349Z,17.16
2022-09-22T12:44:25.401Z,17.17
2022-09-22T12:47:01.280Z,17.12
2022-09-22T12:49:32.238Z,17.21
2022-09-22T12:52:02.173Z,17.31
2022-09-22T12:54:40.269Z,17.23
2022-09-22T12:57:29.362Z,17.23
2022-09-22T13:00:23.169Z,17.22
2022-09-22T13:02:53.990Z,17.28
2022-09-22T13:05:45.560Z,17.29
2022-09-22T13:08:24.974Z,17.31
2022-09-22T13:11:01.257Z,17.40
2022-09-22T13:13:37.167Z,17.41
2022-09-22T13:16:38.207Z,17.37
2022-09-22T13:19:11.545Z,17.38
2022-09-22T13:21:41.898Z,17.43
2022-09-22T13:24:25.108Z,17.33
2022-09-22T13:27:05.936Z,17.23
2022-09-22T13:29:36.543Z,17.23
2022-09-22T13:32:18.506Z,17.25
2022-09-22T13:34:49.293Z,17.24
2022-09-22T13:37:23.456Z,17.28
2022-09-22T13:39:55.415Z,17.31
2022-09-22T13:42:31.844Z,17.39
2022-09-22T13:45:06.420Z,17.41
2022-09-22T13:47:39.524Z,17.33
2022-09-22T13:50:19.824Z,17.27
2022-09-22T13:52:54.016Z,17.31
2022-09-22T13:55:29.350Z,17.50
2022-09-22T13:58:03.711Z,17.54
2022-09-22T14:00:49.934Z,17.53
2022-09-22T14:03:26.315Z,17.49
2022-09-22T14:05:57.402Z,17.50
2022-09-22T14:08:32.822Z,17.50
2022-09-22T14:11:04.068Z,17.51
2022-09-22T14:13:59.309Z,17.50
2022-09-22T14:16:35.225Z,17.48
2022-09-22T14:19:09.581Z,17.51
2022-09-22T14:21:50.382Z,17.49
2022-09-22T14:24:20.909Z,17.51
2022-09-22T14:26:54.891Z,17.48
2022-09-22T14:29:29.454Z,17.53
2022-09-22T14:32:10.743Z,17.57
2022-09-22T14:34:48.458Z,17.64
2022-09-22T14:37:26.160Z,17.65
2022-09-22T14:39:59.131Z,17.56
2022-09-22T14:42:33.007Z,17.56
2022-09-22T14:45:17.828Z,17.59
2022-09-22T14:47:48.380Z,17.56
2022-09-22T14:50:22.007Z,17.57
2022-09-22T14:52:56.591Z,17.52
2022-09-22T14:55:32.408Z,17.51
2022-09-22T14:58:07.467Z,17.47
2022-09-22T15:01:10.724Z,17.47
2022-09-22T15:03:44.970Z,17.43
2022-09-22T15:06:16.189Z,17.40
2022-09-22T15:08:52.086Z,17.36
2022-09-22T15:11:24.414Z,17.31
2022-09-22T15:13:54.559Z,17.33
2022-09-22T15:16:40.007Z,17.28
2022-09-22T15:19:13.445Z,17.20
2022-09-22T15:21:47.942Z,17.17
2022-09-22T15:24:27.065Z,17.10
2022-09-22T15:27:03.174Z,17.03
2022-09-22T15:29:34.677Z,16.99
2022-09-22T15:32:06.810Z,16.59
2022-09-22T15:34:41.243Z,16.94
2022-09-22T15:37:18.507Z,16.85
2022-09-22T15:39:48.603Z,16.80
2022-09-22T15:42:18.508Z,16.76
2022-09-22T15:44:50.789Z,16.73
2022-09-22T15:47:22.800Z,16.64
2022-09-22T15:49:52.752Z,16.62
2022-09-22T15:52:22.743Z,16.58
2022-09-22T15:54:52.592Z,16.53
2022-09-22T15:57:22.411Z,16.49
2022-09-22T15:59:53.269Z,16.47
2022-09-22T16:02:25.328Z,16.40
2022-09-22T16:04:57.344Z,16.32
2022-09-22T16:07:27.167Z,16.24
2022-09-22T16:09:57.356Z,16.23
2022-09-22T16:12:28.316Z,16.19
2022-09-22T16:14:59.151Z,16.14
2022-09-22T16:17:30.405Z,16.10
2022-09-22T16:20:00.974Z,16.03
2022-09-22T16:22:30.908Z,15.94
2022-09-22T16:25:01.099Z,15.86
2022-09-22T16:27:31.131Z,15.75
2022-09-22T16:30:01.460Z,15.68
2022-09-22T16:32:34.226Z,15.67
2022-09-22T16:35:04.141Z,15.60
2022-09-22T16:37:33.936Z,15.48
2022-09-22T16:40:03.962Z,15.52
2022-09-22T16:42:33.764Z,15.46
2022-09-22T16:45:04.318Z,15.44
2022-09-22T16:47:35.451Z,15.42
2022-09-22T16:50:05.706Z,15.37
2022-09-22T16:52:35.776Z,15.35
2022-09-22T16:55:06.839Z,15.38
2022-09-22T16:57:36.636Z,15.42
2022-09-22T17:00:07.642Z,15.31
2022-09-22T17:02:38.833Z,15.20
2022-09-22T17:05:11.269Z,15.07
2022-09-22T17:07:41.326Z,15.04
2022-09-22T17:10:11.535Z,14.98
2022-09-22T17:12:44.667Z,14.96
2022-09-22T17:15:15.674Z,14.87
2022-09-22T17:17:46.864Z,14.90
2022-09-22T17:20:16.955Z,14.80
2022-09-22T17:22:47.712Z,14.84
2022-09-22T17:25:18.872Z,14.72
2022-09-22T17:27:48.986Z,14.73
2022-09-22T17:30:19.012Z,14.70
2022-09-22T17:32:50.351Z,14.67
2022-09-22T17:35:20.162Z,14.65
2022-09-22T17:37:51.835Z,14.65
2022-09-22T17:40:21.629Z,14.53
2022-09-22T17:42:51.493Z,14.49
2022-09-22T17:45:21.973Z,14.52
2022-09-22T17:48:10.904Z,14.44
2022-09-22T17:50:58.096Z,14.46
2022-09-22T17:53:45.430Z,14.39
2022-09-22T17:56:15.497Z,14.26
2022-09-22T17:58:46.558Z,14.32
2022-09-22T18:01:16.848Z,14.35
2022-09-22T18:03:48.536Z,14.36
2022-09-22T18:06:19.408Z,14.31
2022-09-22T18:08:49.238Z,14.33
2022-09-22T18:11:19.070Z,14.33
2022-09-22T18:13:50.688Z,14.24
2022-09-22T18:16:22.394Z,14.17
2022-09-22T18:18:53.580Z,14.10
2022-09-22T18:21:24.163Z,14.07
2022-09-22T18:23:53.892Z,14.01
2022-09-22T18:26:24.284Z,14.03
2022-09-22T18:28:54.355Z,13.89
2022-09-22T18:31:26.470Z,13.88
2022-09-22T18:33:58.335Z,13.88
2022-09-22T18:36:28.321Z,13.84
2022-09-22T18:38:58.446Z,13.75
2022-09-22T18:41:28.678Z,13.68
2022-09-22T18:43:59.731Z,13.64
2022-09-22T18:46:29.923Z,13.41
2022-09-22T18:49:05.955Z,13.47
2022-09-22T18:51:37.714Z,13.38
2022-09-22T18:54:08.320Z,13.25
2022-09-22T18:56:39.856Z,13.21
2022-09-22T18:59:13.314Z,13.24
2022-09-22T19:01:43.722Z,13.03
2022-09-22T19:04:17.526Z,13.15
2022-09-22T19:07:07.919Z,12.77
2022-09-22T19:09:38.380Z,12.86
2022-09-22T19:12:10.214Z,12.86
2022-09-22T19:14:42.005Z,12.75
2022-09-22T19:17:13.227Z,12.75
2022-09-22T19:19:49.881Z,12.68
2022-09-22T19:22:20.107Z,12.78
2022-09-22T19:24:51.010Z,12.73
2022-09-22T19:27:23.057Z,12.77
2022-09-22T19:29:53.093Z,12.73
2022-09-22T19:32:23.237Z,12.67
2022-09-22T19:34:54.992Z,12.56
2022-09-22T19:37:27.928Z,12.60
2022-09-22T19:39:57.783Z,12.54
2022-09-22T19:42:28.534Z,12.43
2022-09-22T19:44:58.388Z,12.28
2022-09-22T19:47:28.354Z,12.29
2022-09-22T19:49:59.535Z,12.28
2022-09-22T19:52:29.224Z,12.28
2022-09-22T19:54:59.040Z,12.34
2022-09-22T19:57:29.034Z,12.33
2022-09-22T19:59:59.094Z,12.18
2022-09-22T20:02:28.926Z,12.11
2022-09-22T20:05:00.078Z,12.00
2022-09-22T20:07:30.187Z,12.21
2022-09-22T20:10:02.322Z,12.22
2022-09-22T20:12:32.457Z,12.29
2022-09-22T20:15:02.774Z,12.16
2022-09-22T20:17:33.120Z,12.16
2022-09-22T20:20:05.630Z,11.91
2022-09-22T20:22:38.762Z,11.96
2022-09-22T20:25:20.115Z,11.87
2022-09-22T20:27:50.340Z,11.81
2022-09-22T20:30:20.150Z,11.76
2022-09-22T20:32:50.431Z,11.71
2022-09-22T20:35:22.062Z,11.59
2022-09-22T20:37:52.424Z,11.66
2022-09-22T20:40:23.254Z,11.72
2022-09-22T20:42:55.301Z,11.66
2022-09-22T20:45:25.275Z,11.47
2022-09-22T20:47:56.211Z,11.66
2022-09-22T20:50:27.460Z,11.59
2022-09-22T20:52:57.296Z,11.56
2022-09-22T20:55:27.471Z,11.55
2022-09-22T20:57:57.415Z,11.72
2022-09-22T21:00:27.237Z,11.80
2022-09-22T21:03:00.322Z,11.70
2022-09-22T21:05:31.714Z,11.63
2022-09-22T21:08:15.622Z,11.64
2022-09-22T21:10:45.664Z,11.72
2022-09-22T21:13:15.777Z,11.70
2022-09-22T21:15:45.651Z,11.62
2022-09-22T21:18:17.354Z,11.64
2022-09-22T21:20:49.337Z,11.82
2022-09-22T21:23:19.660Z,11.91
2022-09-22T21:25:59.910Z,11.66
2022-09-22T21:28:29.983Z,11.51
2022-09-22T21:31:01.728Z,11.70
2022-09-22T21:33:32.184Z,11.66
2022-09-22T21:36:08.982Z,11.64
2022-09-22T21:38:38.945Z,11.77
2022-09-22T21:41:10.911Z,11.77
2022-09-22T21:43:41.694Z,11.67
2022-09-22T21:46:13.457Z,11.57
2022-09-22T21:48:43.872Z,11.41
2022-09-22T21:51:19.329Z,11.48
2022-09-22T21:53:52.206Z,11.37
2022-09-22T21:56:24.943Z,11.52
2022-09-22T21:58:56.025Z,11.64
2022-09-22T22:01:27.887Z,11.48
2022-09-22T22:03:59.694Z,11.57
2022-09-22T22:06:33.048Z,11.64
2022-09-22T22:09:05.201Z,11.67
2022-09-22T22:11:36.968Z,11.43
2022-09-22T22:14:09.057Z,11.50
2022-09-22T22:16:40.697Z,11.49
2022-09-22T22:19:12.627Z,11.48
2022-09-22T22:21:44.758Z,11.46
2022-09-22T22:24:36.152Z,11.49
2022-09-22T22:27:10.897Z,11.48
2022-09-22T22:29:41.076Z,11.47
2022-09-22T22:32:11.825Z,11.57
2022-09-22T22:34:41.586Z,11.49
2022-09-22T22:37:12.702Z,11.50
2022-09-22T22:39:42.478Z,11.44
2022-09-22T22:42:12.361Z,11.47
2022-09-22T22:44:42.404Z,11.42
2022-09-22T22:47:12.330Z,11.57
2022-09-22T22:49:42.182Z,11.56
2022-09-22T22:52:13.458Z,11.51
2022-09-22T22:54:43.338Z,11.41
2022-09-22T22:57:13.116Z,11.45
2022-09-22T22:59:42.949Z,11.44
2022-09-22T23:02:12.737Z,11.57
2022-09-22T23:04:42.617Z,11.49
2022-09-22T23:07:13.846Z,11.56
2022-09-22T23:09:44.280Z,11.62
2022-09-22T23:12:15.262Z,11.65
2022-09-22T23:14:45.276Z,11.64
2022-09-22T23:17:15.720Z,11.60
2022-09-22T23:19:45.535Z,11.58
2022-09-22T23:22:16.694Z,11.67
2022-09-22T23:24:46.505Z,11.63
2022-09-22T23:27:16.291Z,11.55
2022-09-22T23:29:46.735Z,11.65
2022-09-22T23:32:16.503Z,11.63
2022-09-22T23:34:46.235Z,11.59
2022-09-22T23:37:17.594Z,11.62
2022-09-22T23:39:47.328Z,11.70
2022-09-22T23:42:17.068Z,11.57
2022-09-22T23:44:46.843Z,11.57
2022-09-22T23:47:16.656Z,11.69
2022-09-22T23:49:47.578Z,11.66
2022-09-22T23:52:18.721Z,11.47
2022-09-22T23:54:48.612Z,11.56
2022-09-22T23:57:18.716Z,11.62
2022-09-22T23:59:48.469Z,11.62
